KCEZ/CEZ METAR and TAF weather

Enter ICAO airport designator
Station Type Date Time Source
KCEZ METAR 2019/06/26 21:53 UTC NOAA

KCEZ 262153Z AUTO 20017G22KT 10SM CLR 30/M03 A3015 RMK AO2 PK WND 21026/2122 SLP128 T03001033


Station Type Date Time Source
KCEZ Decoded METAR 2019/06/26 21:53 UTC NOAA

CORTEZ MONTEZUMA COUNTY AIRPORT , CO, United States (KCEZ) 37-18N 108-38W 1797M
Jun 26, 2019 - 05:53 PM EDT / 2019.06.26 2153 UTC
Wind: from the SSW (200 degrees) at 20 MPH (17 KT) gusting to 25 MPH (22 KT):0
Visibility: 10 mile(s):0
Sky conditions: clear
Temperature: 86.0 F (30.0 C)
Dew Point: 26.1 F (-3.3 C)
Relative Humidity: 11%
Pressure (altimeter): 30.15 in. Hg (1020 hPa)
ob: KCEZ 262153Z AUTO 20017G22KT 10SM CLR 30/M03 A3015 RMK AO2 PK WND 21026/2122 SLP128 T03001033
cycle: 22

Station Type Date Time Source
KCEZ TAF UTC NOAA

Error!

Example: see airport list